Oxford, United Kingdom
Current Conditions -  °F | °C
As of 11:20 AM on Tuesday 21 Oct 2014 (Local Time) from EGTK Reporting Station
Scattered Clouds Scattered Clouds  
Wind Chill: 52°   Ceiling: Unl
Heat Index: 52°   Visibility: 6mi
Dew Point: 43°   Wind: 23mph
Humidity: 71%   Direction: 280°W
Pressure: 29.68"   Gusts: 37mph
Location:  51.75°N, 1.26°W
Report Text: EGTK 211020Z 28020G32KT 250V310 9999 FEW026 SCT031 11/06 Q1005
Loading
Personal Weather Stations






























Interactive Weather Map
Tropical Storm Tracking
New forecast layout! Learn more

10-Day Weather Forecast

Advertisements
Track Severe Weather on mobile